Weather at Austin Straubel International Airport

Public forecast

Using degrees Fahrenheit for public forecast. Weather courtesy of forecast.io.

Current aviation weather report (METAR) for Austin Straubel International Airport

Retrieved 2020/09/24 14:53 UTC (11 minutes ago):

KGRB 241453Z 11004KT 10SM CLR 19/14 A2993 RMK AO2 SLP133 T01890139 50005

Aviation forecast (TAF) for Austin Straubel International Airport

Retrieved 2020/09/24 12:45 UTC (2 hours ago):

TAF KGRB 241141Z 2412/2512 01007KT P6SM BKN060 FM241700 10007KT P6SM VCSH SCT035 BKN060 FM242100 11008KT P6SM -SHRA SCT025 BKN050 PROB30 2421/2501 3SM TSRA OVC025CB FM250100 17004KT P6SM -SHRA BKN060